createdAt,value
2023-03-10T00:02:19.817Z,20.83
2023-03-10T00:04:50.511Z,21.90
2023-03-10T00:07:17.283Z,20.03
2023-03-10T00:09:43.748Z,19.37
2023-03-10T00:12:10.404Z,21.97
2023-03-10T00:14:36.810Z,19.50
2023-03-10T00:17:03.852Z,20.50
2023-03-10T00:19:30.595Z,18.17
2023-03-10T00:21:57.088Z,18.30
2023-03-10T00:24:23.484Z,18.10
2023-03-10T00:26:50.225Z,19.90
2023-03-10T00:29:17.369Z,21.10
2023-03-10T00:31:44.241Z,21.20
2023-03-10T00:34:11.604Z,17.70
2023-03-10T00:36:39.581Z,21.20
2023-03-10T00:39:06.995Z,18.40
2023-03-10T00:41:36.564Z,19.93
2023-03-10T00:44:03.788Z,19.23
2023-03-10T00:46:30.449Z,18.73
2023-03-10T00:48:57.027Z,18.87
2023-03-10T00:51:23.622Z,18.47
2023-03-10T00:53:50.289Z,18.47
2023-03-10T00:56:19.461Z,19.70
2023-03-10T00:58:46.600Z,21.77
2023-03-10T01:01:19.020Z,18.47
2023-03-10T01:03:46.011Z,22.13
2023-03-10T01:06:12.721Z,20.03
2023-03-10T01:08:39.561Z,19.17
2023-03-10T01:11:06.658Z,18.80
2023-03-10T01:13:33.247Z,20.83
2023-03-10T01:16:00.045Z,21.07
2023-03-10T01:18:26.547Z,20.07
2023-03-10T01:20:52.933Z,20.13
2023-03-10T01:23:22.104Z,20.43
2023-03-10T01:25:49.007Z,18.73
2023-03-10T01:28:15.499Z,19.97
2023-03-10T01:30:42.359Z,20.07
2023-03-10T01:33:09.502Z,19.47
2023-03-10T01:35:36.623Z,19.43
2023-03-10T01:38:04.069Z,22.40
2023-03-10T01:40:30.481Z,22.40
2023-03-10T01:43:15.170Z,19.67
2023-03-10T01:45:41.453Z,18.97
2023-03-10T01:48:07.835Z,18.97
2023-03-10T01:50:34.293Z,20.20
2023-03-10T01:53:00.738Z,21.40
2023-03-10T01:55:30.704Z,18.43
2023-03-10T01:57:57.885Z,19.73
2023-03-10T02:00:26.038Z,21.33
2023-03-10T02:03:11.636Z,20.00
2023-03-10T02:05:41.929Z,18.07
2023-03-10T02:08:09.659Z,19.00
2023-03-10T02:10:36.193Z,19.13
2023-03-10T02:13:02.644Z,18.60
2023-03-10T02:15:29.544Z,18.77
2023-03-10T02:17:56.284Z,17.10
2023-03-10T02:20:33.006Z,16.60
2023-03-10T02:22:59.394Z,17.30
2023-03-10T02:25:49.113Z,15.67
2023-03-10T02:28:16.214Z,19.40
2023-03-10T02:30:48.230Z,15.83
2023-03-10T02:33:26.552Z,18.63
2023-03-10T02:35:53.503Z,16.60
2023-03-10T02:38:20.413Z,17.30
2023-03-10T02:40:49.354Z,15.93
2023-03-10T02:43:28.820Z,18.03
2023-03-10T02:45:57.503Z,18.73
2023-03-10T02:48:30.038Z,17.93
2023-03-10T02:50:57.680Z,18.17
2023-03-10T02:53:26.124Z,19.90
2023-03-10T02:55:53.435Z,16.87
2023-03-10T02:58:22.654Z,20.57
2023-03-10T03:00:50.106Z,19.97
2023-03-10T03:03:18.116Z,16.43
2023-03-10T03:05:44.708Z,18.83
2023-03-10T03:08:11.237Z,17.37
2023-03-10T03:10:38.422Z,16.53
2023-03-10T03:13:05.769Z,16.30
2023-03-10T03:15:32.601Z,19.40
2023-03-10T03:17:59.591Z,17.27
2023-03-10T03:20:27.641Z,17.33
2023-03-10T03:22:54.591Z,17.87
2023-03-10T03:25:22.559Z,17.63
2023-03-10T03:27:49.200Z,17.80
2023-03-10T03:30:21.709Z,17.17
2023-03-10T03:32:48.617Z,16.67
2023-03-10T03:35:18.091Z,17.00
2023-03-10T03:37:44.844Z,14.67
2023-03-10T03:40:13.161Z,17.10
2023-03-10T03:42:44.383Z,15.87
2023-03-10T03:45:12.130Z,16.47
2023-03-10T03:47:38.486Z,16.07
2023-03-10T03:50:05.524Z,19.07
2023-03-10T03:52:32.093Z,17.47
2023-03-10T03:54:58.636Z,16.00
2023-03-10T03:57:25.092Z,18.03
2023-03-10T03:59:51.709Z,16.73
2023-03-10T04:02:18.399Z,15.20
2023-03-10T04:04:44.850Z,16.93
2023-03-10T04:07:11.394Z,18.00
2023-03-10T04:09:42.647Z,17.70
2023-03-10T04:12:09.916Z,17.43
2023-03-10T04:14:37.052Z,18.10
2023-03-10T04:17:03.974Z,16.20
2023-03-10T04:19:30.549Z,17.70
2023-03-10T04:21:56.905Z,21.87
2023-03-10T04:24:23.392Z,18.00
2023-03-10T04:26:49.766Z,16.17
2023-03-10T04:29:16.243Z,16.80
2023-03-10T04:31:44.976Z,16.37
2023-03-10T04:34:16.954Z,16.77
2023-03-10T04:36:43.315Z,16.27
2023-03-10T04:39:09.842Z,17.80
2023-03-10T04:41:36.693Z,17.67
2023-03-10T04:44:03.698Z,15.77
2023-03-10T04:46:31.775Z,17.67
2023-03-10T04:48:58.242Z,15.83
2023-03-10T04:51:24.616Z,15.17
2023-03-10T04:53:51.017Z,16.33
2023-03-10T04:56:17.466Z,19.27
2023-03-10T04:58:43.894Z,18.77
2023-03-10T05:01:11.466Z,17.30
2023-03-10T05:03:37.855Z,16.77
2023-03-10T05:06:05.011Z,16.00
2023-03-10T05:08:31.398Z,17.03
2023-03-10T05:10:59.039Z,17.00
2023-03-10T05:13:25.455Z,14.90
2023-03-10T05:15:52.370Z,15.60
2023-03-10T05:18:19.523Z,17.57
2023-03-10T05:20:46.048Z,16.47
2023-03-10T05:23:12.400Z,17.07
2023-03-10T05:25:40.164Z,16.37
2023-03-10T05:28:08.903Z,19.13
2023-03-10T05:30:35.266Z,20.37
2023-03-10T05:33:02.228Z,17.13
2023-03-10T05:35:28.645Z,17.70
2023-03-10T05:37:55.015Z,18.23
2023-03-10T05:40:21.479Z,16.87
2023-03-10T05:42:48.834Z,17.93
2023-03-10T05:45:15.616Z,17.83
2023-03-10T05:47:42.698Z,20.23
2023-03-10T05:50:10.572Z,18.17
2023-03-10T05:52:38.509Z,17.90
2023-03-10T05:55:05.988Z,19.13
2023-03-10T05:57:32.404Z,21.83
2023-03-10T05:59:58.806Z,17.97
2023-03-10T06:02:25.215Z,17.67
2023-03-10T06:04:51.601Z,21.63
2023-03-10T06:07:18.235Z,20.33
2023-03-10T06:09:44.923Z,20.43
2023-03-10T06:12:11.890Z,21.60
2023-03-10T06:14:38.567Z,21.47
2023-03-10T06:17:05.002Z,22.97
2023-03-10T06:19:31.629Z,20.47
2023-03-10T06:21:57.999Z,22.47
2023-03-10T06:24:24.406Z,21.90
2023-03-10T06:26:50.908Z,20.80
2023-03-10T06:29:17.330Z,20.93
2023-03-10T06:31:43.783Z,22.90
2023-03-10T06:34:10.390Z,23.10
2023-03-10T06:36:39.113Z,24.90
2023-03-10T06:39:05.547Z,25.23
2023-03-10T06:41:32.302Z,26.90
2023-03-10T06:43:59.028Z,27.37
2023-03-10T06:46:25.701Z,23.90
2023-03-10T06:48:52.155Z,27.13
2023-03-10T06:51:20.745Z,24.77
2023-03-10T06:53:47.554Z,24.10
2023-03-10T06:56:17.020Z,24.07
2023-03-10T06:58:44.085Z,27.30
2023-03-10T07:01:27.402Z,28.03
2023-03-10T07:03:54.163Z,31.73
2023-03-10T07:06:21.313Z,27.40
2023-03-10T07:08:47.855Z,28.63
2023-03-10T07:11:14.600Z,30.47
2023-03-10T07:13:40.999Z,28.57
2023-03-10T07:16:07.850Z,29.17
2023-03-10T07:18:35.549Z,26.30
2023-03-10T07:21:02.453Z,28.73
2023-03-10T07:23:28.831Z,25.07
2023-03-10T07:25:56.877Z,28.83
2023-03-10T07:28:24.130Z,26.20
2023-03-10T07:30:50.825Z,25.87
2023-03-10T07:33:17.248Z,25.87
2023-03-10T07:35:44.015Z,26.60
2023-03-10T07:38:10.426Z,30.43
2023-03-10T07:40:39.530Z,29.70
2023-03-10T07:43:05.936Z,31.90
2023-03-10T07:45:33.642Z,30.87
2023-03-10T07:48:00.272Z,30.10
2023-03-10T07:50:26.692Z,30.17
2023-03-10T07:52:54.885Z,34.10
2023-03-10T07:55:21.712Z,33.07
2023-03-10T07:57:48.101Z,29.50
2023-03-10T08:00:16.326Z,35.13
2023-03-10T08:02:42.766Z,34.00
2023-03-10T08:05:10.144Z,30.77
2023-03-10T08:07:37.220Z,31.50
2023-03-10T08:10:04.147Z,33.20
2023-03-10T08:12:30.506Z,32.47
2023-03-10T08:14:56.977Z,32.40
2023-03-10T08:17:30.370Z,35.53
2023-03-10T08:19:58.445Z,35.60
2023-03-10T08:22:24.852Z,34.10
2023-03-10T08:24:56.038Z,35.00
2023-03-10T08:27:22.481Z,35.00
2023-03-10T08:29:49.019Z,32.80
2023-03-10T08:32:15.502Z,32.87
2023-03-10T08:34:43.057Z,30.80
2023-03-10T08:37:10.362Z,31.97
2023-03-10T08:39:37.578Z,32.20
2023-03-10T08:42:04.125Z,30.93
2023-03-10T08:44:30.818Z,32.50
2023-03-10T08:46:57.484Z,33.20
2023-03-10T08:49:23.912Z,29.27
2023-03-10T08:51:50.417Z,30.23
2023-03-10T08:54:19.341Z,29.90
2023-03-10T08:56:45.779Z,28.53
2023-03-10T08:59:12.406Z,30.03
2023-03-10T09:01:39.161Z,27.33
2023-03-10T09:04:06.841Z,28.20
2023-03-10T09:06:34.040Z,30.53
2023-03-10T09:09:00.873Z,26.87
2023-03-10T09:11:31.452Z,28.90
2023-03-10T09:13:58.336Z,28.13
2023-03-10T09:16:25.175Z,26.37
2023-03-10T09:18:51.717Z,25.63
2023-03-10T09:21:19.335Z,23.30
2023-03-10T09:23:47.642Z,24.60
2023-03-10T09:26:14.903Z,25.20
2023-03-10T09:28:41.437Z,23.93
2023-03-10T09:31:09.234Z,24.20
2023-03-10T09:33:35.714Z,25.70
2023-03-10T09:36:07.412Z,26.43
2023-03-10T09:38:34.864Z,25.60
2023-03-10T09:41:13.347Z,25.30
2023-03-10T09:43:45.089Z,24.63
2023-03-10T09:46:53.548Z,27.20
2023-03-10T09:49:25.076Z,25.20
2023-03-10T09:51:51.890Z,26.03
2023-03-10T09:54:30.378Z,27.63
2023-03-10T09:56:57.755Z,26.57
2023-03-10T09:59:31.417Z,24.80
2023-03-10T10:01:58.096Z,27.50
2023-03-10T10:04:35.689Z,27.17
2023-03-10T10:07:03.733Z,26.23
2023-03-10T10:09:43.960Z,26.57
2023-03-10T10:12:15.912Z,26.17
2023-03-10T10:14:55.052Z,25.80
2023-03-10T10:17:53.740Z,26.73
2023-03-10T10:20:42.571Z,27.33
2023-03-10T10:23:24.979Z,25.73
2023-03-10T10:25:51.612Z,25.47
2023-03-10T10:28:29.927Z,27.03
2023-03-10T10:31:20.637Z,25.10
2023-03-10T10:33:59.248Z,29.00
2023-03-10T10:36:36.787Z,23.33
2023-03-10T10:39:05.920Z,22.50
2023-03-10T10:41:34.713Z,22.40
2023-03-10T10:44:09.433Z,24.80
2023-03-10T10:46:36.111Z,20.90
2023-03-10T10:49:25.877Z,23.70
2023-03-10T10:52:04.086Z,20.10
2023-03-10T10:54:41.418Z,24.23
2023-03-10T10:57:32.520Z,22.60
2023-03-10T11:00:31.757Z,22.97
2023-03-10T11:02:58.343Z,24.20
2023-03-10T11:05:32.493Z,21.63
2023-03-10T11:08:23.393Z,22.17
2023-03-10T11:10:56.782Z,21.87
2023-03-10T11:13:29.485Z,22.30
2023-03-10T11:16:03.821Z,22.37
2023-03-10T11:18:41.113Z,21.90
2023-03-10T11:21:14.462Z,21.37
2023-03-10T11:23:54.904Z,21.17
2023-03-10T11:27:10.057Z,20.57
2023-03-10T11:30:06.093Z,19.33
2023-03-10T11:32:49.990Z,19.57
2023-03-10T11:35:24.433Z,21.63
2023-03-10T11:37:57.042Z,20.40
2023-03-10T11:40:42.842Z,18.73
2023-03-10T11:44:01.911Z,20.57
2023-03-10T11:46:37.819Z,22.70
2023-03-10T11:49:10.510Z,21.03
2023-03-10T11:51:47.176Z,20.60
2023-03-10T11:54:19.671Z,23.07
2023-03-10T11:56:47.199Z,20.53
2023-03-10T11:59:24.935Z,23.53
2023-03-10T12:01:56.141Z,22.83
2023-03-10T12:04:49.774Z,19.67
2023-03-10T12:07:21.795Z,22.20
2023-03-10T12:09:55.005Z,25.97
2023-03-10T12:12:34.919Z,25.67
2023-03-10T12:15:03.621Z,23.37
2023-03-10T12:17:30.177Z,20.03
2023-03-10T12:20:14.576Z,23.73
2023-03-10T12:22:53.119Z,23.20
2023-03-10T12:25:43.215Z,22.47
2023-03-10T12:28:15.648Z,21.70
2023-03-10T12:31:03.979Z,19.87
2023-03-10T12:33:30.319Z,23.97
2023-03-10T12:36:16.731Z,20.73
2023-03-10T12:39:04.244Z,23.23
2023-03-10T12:41:30.669Z,23.97
2023-03-10T12:44:23.154Z,21.20
2023-03-10T12:46:53.134Z,22.17
2023-03-10T12:49:43.170Z,21.87
2023-03-10T12:52:31.209Z,24.83
2023-03-10T12:55:26.546Z,23.40
2023-03-10T12:57:53.956Z,22.60
2023-03-10T13:00:25.540Z,26.50
2023-03-10T13:03:05.350Z,21.90
2023-03-10T13:05:35.255Z,22.97
2023-03-10T13:08:12.959Z,20.77
2023-03-10T13:10:39.735Z,23.37
2023-03-10T13:13:08.862Z,22.80
2023-03-10T13:15:35.788Z,24.03
2023-03-10T13:18:17.528Z,26.13
2023-03-10T13:20:43.927Z,20.57
2023-03-10T13:23:24.085Z,26.13
2023-03-10T13:25:54.404Z,29.77
2023-03-10T13:28:21.002Z,25.07
2023-03-10T13:30:47.624Z,27.10
2023-03-10T13:33:20.194Z,26.00
2023-03-10T13:35:47.657Z,29.23
2023-03-10T13:38:21.874Z,26.33
2023-03-10T13:40:57.556Z,27.63
2023-03-10T13:43:33.425Z,31.57
2023-03-10T13:46:01.466Z,30.73
2023-03-10T13:48:28.788Z,26.33
2023-03-10T13:51:13.949Z,31.00
2023-03-10T13:53:40.449Z,25.60
2023-03-10T13:56:17.569Z,27.23
2023-03-10T13:58:44.887Z,24.80
2023-03-10T14:01:18.054Z,30.50
2023-03-10T14:03:55.347Z,27.10
2023-03-10T14:06:22.899Z,28.83
2023-03-10T14:08:50.225Z,29.37
2023-03-10T14:11:41.186Z,25.87
2023-03-10T14:14:10.853Z,30.10
2023-03-10T14:16:52.885Z,29.80
2023-03-10T14:19:41.149Z,29.43
2023-03-10T14:22:29.561Z,34.00
2023-03-10T14:24:57.062Z,33.43
2023-03-10T14:27:24.719Z,26.73
2023-03-10T14:29:54.035Z,32.13
2023-03-10T14:32:20.732Z,29.87
2023-03-10T14:34:48.306Z,27.83
2023-03-10T14:37:15.161Z,32.17
2023-03-10T14:39:41.662Z,30.27
2023-03-10T14:42:17.797Z,33.97
2023-03-10T14:44:44.470Z,34.80
2023-03-10T14:47:11.124Z,36.57
2023-03-10T14:49:37.751Z,42.33
2023-03-10T14:52:09.285Z,39.70
2023-03-10T14:54:35.677Z,39.67
2023-03-10T14:57:02.196Z,40.73
2023-03-10T14:59:28.693Z,39.77
2023-03-10T15:01:56.182Z,44.47
2023-03-10T15:04:22.688Z,41.90
2023-03-10T15:06:49.149Z,42.27
2023-03-10T15:09:15.579Z,39.33
2023-03-10T15:11:42.125Z,41.80
2023-03-10T15:14:19.237Z,41.80
2023-03-10T15:16:45.685Z,43.70
2023-03-10T15:19:19.774Z,42.50
2023-03-10T15:21:46.242Z,45.40
2023-03-10T15:24:12.620Z,41.80
2023-03-10T15:26:39.004Z,46.27
2023-03-10T15:29:05.688Z,46.27
2023-03-10T15:31:32.494Z,47.67
2023-03-10T15:33:58.958Z,49.90
2023-03-10T15:36:25.423Z,45.07
2023-03-10T15:38:52.947Z,43.47
2023-03-10T15:41:19.430Z,43.60
2023-03-10T15:43:45.867Z,43.53
2023-03-10T15:46:12.373Z,46.93
2023-03-10T15:48:38.853Z,45.50
2023-03-10T15:51:10.506Z,45.47
2023-03-10T15:53:37.015Z,44.00
2023-03-10T15:56:07.721Z,41.07
2023-03-10T15:58:35.949Z,44.97
2023-03-10T16:01:12.358Z,45.67
2023-03-10T16:03:38.922Z,38.53
2023-03-10T16:06:05.854Z,39.17
2023-03-10T16:08:37.187Z,41.07
2023-03-10T16:11:06.166Z,42.17
2023-03-10T16:13:32.853Z,35.73
2023-03-10T16:16:04.563Z,39.60
2023-03-10T16:18:31.093Z,41.20
2023-03-10T16:20:58.596Z,42.03
2023-03-10T16:23:29.451Z,39.50
2023-03-10T16:26:22.586Z,35.30
2023-03-10T16:28:52.083Z,36.07
2023-03-10T16:31:20.095Z,34.70
2023-03-10T16:33:51.368Z,33.80
2023-03-10T16:36:23.334Z,34.67
2023-03-10T16:38:50.472Z,32.90
2023-03-10T16:41:17.293Z,35.93
2023-03-10T16:43:43.747Z,34.67
2023-03-10T16:46:21.515Z,33.03
2023-03-10T16:48:48.370Z,30.53
2023-03-10T16:51:31.550Z,35.30
2023-03-10T16:54:00.242Z,32.33
2023-03-10T16:56:28.200Z,32.33
2023-03-10T16:58:54.908Z,31.67
2023-03-10T17:01:23.941Z,30.10
2023-03-10T17:03:54.133Z,28.43
2023-03-10T17:06:23.838Z,31.67
2023-03-10T17:08:51.083Z,27.47
2023-03-10T17:11:23.424Z,30.77
2023-03-10T17:13:53.181Z,29.83
2023-03-10T17:16:23.293Z,30.90
2023-03-10T17:18:50.221Z,31.93
2023-03-10T17:21:22.690Z,30.50
2023-03-10T17:23:49.530Z,31.80
2023-03-10T17:26:17.018Z,29.80
2023-03-10T17:28:44.925Z,29.93
2023-03-10T17:31:14.254Z,29.97
2023-03-10T17:33:42.518Z,28.60
2023-03-10T17:36:12.208Z,25.50
2023-03-10T17:38:38.879Z,30.10
2023-03-10T17:41:06.781Z,27.13
2023-03-10T17:43:34.796Z,28.53
2023-03-10T17:46:04.490Z,29.67
2023-03-10T17:48:31.393Z,27.47
2023-03-10T17:50:57.930Z,27.50
2023-03-10T17:53:24.964Z,25.67
2023-03-10T17:55:51.487Z,27.63
2023-03-10T17:58:18.022Z,24.50
2023-03-10T18:00:44.556Z,28.30
2023-03-10T18:03:11.109Z,30.10
2023-03-10T18:05:41.905Z,31.03
2023-03-10T18:08:08.501Z,31.03
2023-03-10T18:10:35.555Z,33.10
2023-03-10T18:13:07.939Z,30.03
2023-03-10T18:15:34.940Z,35.10
2023-03-10T18:18:02.077Z,33.47
2023-03-10T18:20:28.630Z,31.27
2023-03-10T18:22:55.113Z,31.27
2023-03-10T18:25:21.539Z,32.43
2023-03-10T18:27:48.429Z,27.60
2023-03-10T18:30:15.651Z,34.40
2023-03-10T18:32:42.232Z,36.90
2023-03-10T18:35:11.046Z,31.27
2023-03-10T18:37:37.539Z,24.80
2023-03-10T18:40:05.924Z,32.13
2023-03-10T18:42:33.123Z,26.47
2023-03-10T18:44:59.522Z,27.20
2023-03-10T18:47:25.953Z,25.97
2023-03-10T18:49:52.319Z,23.23
2023-03-10T18:52:18.693Z,24.40
2023-03-10T18:54:46.965Z,22.17
2023-03-10T18:57:14.449Z,22.00
2023-03-10T18:59:40.982Z,21.73
2023-03-10T19:02:12.510Z,23.97
2023-03-10T19:04:40.205Z,25.20
2023-03-10T19:07:07.633Z,23.33
2023-03-10T19:09:34.150Z,23.10
2023-03-10T19:12:00.560Z,25.70
2023-03-10T19:14:26.986Z,28.87
2023-03-10T19:16:53.412Z,23.53
2023-03-10T19:19:19.825Z,26.93
2023-03-10T19:21:46.274Z,26.60
2023-03-10T19:24:12.659Z,24.67
2023-03-10T19:26:39.058Z,30.43
2023-03-10T19:29:05.434Z,26.70
2023-03-10T19:31:31.925Z,24.73
2023-03-10T19:33:58.847Z,24.67
2023-03-10T19:36:26.565Z,24.97
2023-03-10T19:38:53.323Z,24.47
2023-03-10T19:41:19.728Z,27.87
2023-03-10T19:43:48.786Z,26.27
2023-03-10T19:46:15.860Z,25.67
2023-03-10T19:48:43.134Z,24.87
2023-03-10T19:51:20.946Z,25.43
2023-03-10T19:53:47.618Z,22.60
2023-03-10T19:56:16.100Z,24.13
2023-03-10T19:58:42.628Z,21.10
2023-03-10T20:01:16.272Z,18.87
2023-03-10T20:03:43.193Z,20.50
2023-03-10T20:06:09.699Z,22.13
2023-03-10T20:08:37.991Z,19.43
2023-03-10T20:11:05.339Z,18.40
2023-03-10T20:13:32.732Z,20.37
2023-03-10T20:15:59.586Z,18.07
2023-03-10T20:18:25.975Z,19.23
2023-03-10T20:20:52.456Z,18.37
2023-03-10T20:23:18.851Z,22.00
2023-03-10T20:25:46.301Z,22.17
2023-03-10T20:28:13.354Z,22.47
2023-03-10T20:30:41.090Z,21.73
2023-03-10T20:33:07.529Z,20.80
2023-03-10T20:35:34.316Z,22.53
2023-03-10T20:38:00.790Z,24.40
2023-03-10T20:40:27.687Z,21.20
2023-03-10T20:42:56.767Z,21.90
2023-03-10T20:45:23.481Z,23.33
2023-03-10T20:47:50.184Z,25.03
2023-03-10T20:50:17.307Z,24.40
2023-03-10T20:52:44.121Z,20.10
2023-03-10T20:55:20.882Z,24.93
2023-03-10T20:57:48.000Z,26.83
2023-03-10T21:00:16.459Z,23.50
2023-03-10T21:02:47.450Z,26.07
2023-03-10T21:05:14.294Z,25.93
2023-03-10T21:07:40.852Z,23.70
2023-03-10T21:10:09.287Z,27.97
2023-03-10T21:12:35.648Z,25.73
2023-03-10T21:15:02.024Z,27.20
2023-03-10T21:17:28.487Z,27.10
2023-03-10T21:19:54.905Z,29.73
2023-03-10T21:22:21.477Z,26.33
2023-03-10T21:24:49.091Z,26.73
2023-03-10T21:27:15.767Z,27.97
2023-03-10T21:29:42.998Z,26.17
2023-03-10T21:32:09.354Z,23.20
2023-03-10T21:34:35.743Z,22.57
2023-03-10T21:37:02.104Z,24.43
2023-03-10T21:39:28.473Z,23.43
2023-03-10T21:41:54.847Z,22.63
2023-03-10T21:44:21.219Z,21.37
2023-03-10T21:46:49.123Z,23.97
2023-03-10T21:49:15.715Z,23.10
2023-03-10T21:51:42.108Z,25.10
2023-03-10T21:54:09.883Z,21.40
2023-03-10T21:56:36.248Z,25.00
2023-03-10T21:59:02.598Z,20.80
2023-03-10T22:01:38.210Z,21.97
2023-03-10T22:04:04.912Z,21.80
2023-03-10T22:06:31.588Z,25.10
2023-03-10T22:08:57.964Z,24.03
2023-03-10T22:11:24.487Z,18.70
2023-03-10T22:13:53.043Z,19.67
2023-03-10T22:16:19.440Z,19.43
2023-03-10T22:18:45.944Z,20.30
2023-03-10T22:21:12.339Z,23.97
2023-03-10T22:23:38.789Z,25.93
2023-03-10T22:26:05.215Z,26.40
2023-03-10T22:28:32.417Z,24.90
2023-03-10T22:30:58.827Z,27.73
2023-03-10T22:33:25.214Z,20.10
2023-03-10T22:35:52.304Z,19.80
2023-03-10T22:38:20.210Z,22.57
2023-03-10T22:40:47.144Z,19.53
2023-03-10T22:43:13.770Z,21.47
2023-03-10T22:45:41.711Z,20.33
2023-03-10T22:48:09.092Z,20.77
2023-03-10T22:50:43.471Z,21.60
2023-03-10T22:53:15.131Z,19.20
2023-03-10T22:55:43.497Z,21.17
2023-03-10T22:58:11.030Z,19.77
2023-03-10T23:00:38.434Z,19.63
2023-03-10T23:03:06.172Z,18.57
2023-03-10T23:05:33.116Z,18.77
2023-03-10T23:07:59.722Z,14.47
2023-03-10T23:10:31.642Z,14.90
2023-03-10T23:12:59.775Z,17.60
2023-03-10T23:15:28.957Z,14.60
2023-03-10T23:17:55.942Z,12.47
2023-03-10T23:20:28.305Z,11.93
2023-03-10T23:22:56.331Z,17.03
2023-03-10T23:25:40.674Z,15.37
2023-03-10T23:28:08.625Z,9.63
2023-03-10T23:30:36.479Z,13.60
2023-03-10T23:33:03.141Z,8.70
2023-03-10T23:35:31.905Z,11.90
2023-03-10T23:38:00.163Z,8.67
2023-03-10T23:40:27.908Z,9.03
2023-03-10T23:42:55.627Z,8.93
2023-03-10T23:45:23.177Z,9.40
2023-03-10T23:47:50.442Z,6.97
2023-03-10T23:50:21.439Z,8.87
2023-03-10T23:52:47.925Z,6.47
2023-03-10T23:55:17.074Z,7.53
2023-03-10T23:57:43.448Z,5.17
